createdAt,value
2019-02-17T00:00:35.370Z,1020.11
2019-02-17T00:01:35.362Z,1020.08
2019-02-17T00:02:35.356Z,1020.14
2019-02-17T00:03:35.346Z,1020.08
2019-02-17T00:04:35.334Z,1020.10
2019-02-17T00:05:35.331Z,1020.05
2019-02-17T00:06:35.312Z,1020.07
2019-02-17T00:07:35.303Z,1020.04
2019-02-17T00:08:35.296Z,1020.08
2019-02-17T00:09:35.289Z,1020.04
2019-02-17T00:10:35.273Z,1020.02
2019-02-17T00:11:35.263Z,1020.05
2019-02-17T00:12:35.257Z,1020.03
2019-02-17T00:13:35.250Z,1020.03
2019-02-17T00:14:35.242Z,1020.02
2019-02-17T00:15:35.231Z,1020.02
2019-02-17T00:16:35.224Z,1019.99
2019-02-17T00:17:35.214Z,1019.98
2019-02-17T00:18:35.199Z,1019.98
2019-02-17T00:19:35.189Z,1019.97
2019-02-17T00:20:35.180Z,1019.95
2019-02-17T00:21:35.167Z,1019.93
2019-02-17T00:22:35.163Z,1019.94
2019-02-17T00:23:35.153Z,1019.95
2019-02-17T00:24:35.138Z,1019.92
2019-02-17T00:25:35.131Z,1019.90
2019-02-17T00:26:35.130Z,1019.91
2019-02-17T00:27:35.115Z,1019.87
2019-02-17T00:28:35.108Z,1019.90
2019-02-17T00:29:35.097Z,1019.91
2019-02-17T00:30:35.085Z,1019.89
2019-02-17T00:31:35.073Z,1019.86
2019-02-17T00:32:35.064Z,1019.84
2019-02-17T00:33:35.053Z,1019.83
2019-02-17T00:34:35.049Z,1019.80
2019-02-17T00:35:35.079Z,1019.86
2019-02-17T00:36:35.029Z,1019.84
2019-02-17T00:37:35.017Z,1019.86
2019-02-17T00:38:35.002Z,1019.85
2019-02-17T00:39:34.993Z,1019.78
2019-02-17T00:40:34.993Z,1019.85
2019-02-17T00:41:34.978Z,1019.82
2019-02-17T00:42:34.963Z,1019.81
2019-02-17T00:43:34.952Z,1019.77
2019-02-17T00:44:34.945Z,1019.82
2019-02-17T00:45:34.936Z,1019.86
2019-02-17T00:46:34.931Z,1019.86
2019-02-17T00:47:34.923Z,1019.85
2019-02-17T00:48:34.912Z,1019.82
2019-02-17T00:49:34.900Z,1019.81
2019-02-17T00:50:34.889Z,1019.80
2019-02-17T00:51:34.876Z,1019.82
2019-02-17T00:52:34.869Z,1019.82
2019-02-17T00:53:34.859Z,1019.84
2019-02-17T00:54:34.855Z,1019.83
2019-02-17T00:55:34.844Z,1019.85
2019-02-17T00:56:34.830Z,1019.81
2019-02-17T00:57:34.822Z,1019.87
2019-02-17T00:58:34.816Z,1019.84
2019-02-17T00:59:34.808Z,1019.86
2019-02-17T01:00:34.795Z,1019.83
2019-02-17T01:01:34.789Z,1019.87
2019-02-17T01:02:34.778Z,1019.84
2019-02-17T01:03:34.764Z,1019.85
2019-02-17T01:04:34.756Z,1019.85
2019-02-17T01:05:34.745Z,1019.81
2019-02-17T01:06:34.744Z,1019.82
2019-02-17T01:07:34.732Z,1019.83
2019-02-17T01:08:34.727Z,1019.80
2019-02-17T01:09:34.717Z,1019.76
2019-02-17T01:10:34.702Z,1019.76
2019-02-17T01:11:34.692Z,1019.78
2019-02-17T01:12:34.688Z,1019.78
2019-02-17T01:13:34.678Z,1019.79
2019-02-17T01:14:34.667Z,1019.83
2019-02-17T01:15:34.654Z,1019.78
2019-02-17T01:16:34.646Z,1019.81
2019-02-17T01:17:34.635Z,1019.81
2019-02-17T01:18:34.630Z,1019.79
2019-02-17T01:19:34.622Z,1019.82
2019-02-17T01:20:34.616Z,1019.81
2019-02-17T01:21:34.602Z,1019.82
2019-02-17T01:22:34.590Z,1019.84
2019-02-17T01:23:34.577Z,1019.84
2019-02-17T01:24:34.572Z,1019.85
2019-02-17T01:25:34.564Z,1019.84
2019-02-17T01:26:34.558Z,1019.83
2019-02-17T01:27:34.549Z,1019.81
2019-02-17T01:28:34.535Z,1019.85
2019-02-17T01:29:34.527Z,1019.85
2019-02-17T01:30:34.524Z,1019.87
2019-02-17T01:31:34.511Z,1019.88
2019-02-17T01:32:34.499Z,1019.88
2019-02-17T01:33:34.492Z,1019.83
2019-02-17T01:34:34.479Z,1019.86
2019-02-17T01:35:34.468Z,1019.85
2019-02-17T01:36:34.461Z,1019.83
2019-02-17T01:37:34.454Z,1019.82
2019-02-17T01:38:34.446Z,1019.80
2019-02-17T01:39:34.436Z,1019.85
2019-02-17T01:40:34.430Z,1019.81
2019-02-17T01:41:34.422Z,1019.83
2019-02-17T01:42:34.408Z,1019.83
2019-02-17T01:43:34.396Z,1019.81
2019-02-17T01:44:34.392Z,1019.82
2019-02-17T01:45:34.386Z,1019.75
2019-02-17T01:46:34.372Z,1019.79
2019-02-17T01:47:34.363Z,1019.75
2019-02-17T01:48:34.350Z,1019.77
2019-02-17T01:49:34.339Z,1019.75
2019-02-17T01:50:34.337Z,1019.73
2019-02-17T01:51:34.327Z,1019.70
2019-02-17T01:52:34.320Z,1019.70
2019-02-17T01:53:34.315Z,1019.72
2019-02-17T01:54:34.298Z,1019.71
2019-02-17T01:55:34.288Z,1019.69
2019-02-17T01:56:34.275Z,1019.67
2019-02-17T01:57:34.270Z,1019.65
2019-02-17T01:58:34.264Z,1019.65
2019-02-17T01:59:34.253Z,1019.65
2019-02-17T02:00:34.240Z,1019.69
2019-02-17T02:01:34.233Z,1019.65
2019-02-17T02:02:34.226Z,1019.64
2019-02-17T02:03:34.220Z,1019.63
2019-02-17T02:04:34.213Z,1019.63
2019-02-17T02:05:34.205Z,1019.63
2019-02-17T02:06:34.190Z,1019.64
2019-02-17T02:07:34.179Z,1019.59
2019-02-17T02:08:34.170Z,1019.58
2019-02-17T02:09:34.160Z,1019.58
2019-02-17T02:10:34.157Z,1019.56
2019-02-17T02:11:34.147Z,1019.57
2019-02-17T02:12:34.135Z,1019.63
2019-02-17T02:13:34.126Z,1019.53
2019-02-17T02:14:34.113Z,1019.53
2019-02-17T02:15:34.103Z,1019.51
2019-02-17T02:16:34.102Z,1019.56
2019-02-17T02:17:34.091Z,1019.54
2019-02-17T02:18:34.081Z,1019.54
2019-02-17T02:19:34.066Z,1019.53
2019-02-17T02:20:34.060Z,1019.58
2019-02-17T02:21:34.053Z,1019.51
2019-02-17T02:22:34.046Z,1019.53
2019-02-17T02:23:34.038Z,1019.49
2019-02-17T02:24:34.032Z,1019.49
2019-02-17T02:25:34.018Z,1019.43
2019-02-17T02:26:34.006Z,1019.46
2019-02-17T02:27:33.995Z,1019.39
2019-02-17T02:28:33.983Z,1019.39
2019-02-17T02:29:40.774Z,1019.42
2019-02-17T02:30:33.971Z,1019.37
2019-02-17T02:31:33.962Z,1019.35
2019-02-17T02:32:33.948Z,1019.42
2019-02-17T02:33:33.937Z,1019.37
2019-02-17T02:34:33.936Z,1019.36
2019-02-17T02:35:33.924Z,1019.37
2019-02-17T02:36:33.918Z,1019.38
2019-02-17T02:37:33.926Z,1019.39
2019-02-17T02:38:33.895Z,1019.37
2019-02-17T02:39:33.887Z,1019.40
2019-02-17T02:40:33.877Z,1019.39
2019-02-17T02:41:35.084Z,1019.34
2019-02-17T02:42:33.862Z,1019.33
2019-02-17T02:43:33.853Z,1019.36
2019-02-17T02:44:33.843Z,1019.33
2019-02-17T02:45:33.832Z,1019.31
2019-02-17T02:46:33.817Z,1019.29
2019-02-17T02:47:33.808Z,1019.30
2019-02-17T02:48:33.804Z,1019.26
2019-02-17T02:49:33.795Z,1019.32
2019-02-17T02:50:33.781Z,1019.28
2019-02-17T02:51:33.772Z,1019.28
2019-02-17T02:52:33.765Z,1019.29
2019-02-17T02:53:33.756Z,1019.30
2019-02-17T02:54:33.759Z,1019.24
2019-02-17T02:55:33.741Z,1019.28
2019-02-17T02:56:33.732Z,1019.25
2019-02-17T02:57:33.725Z,1019.26
2019-02-17T02:58:33.710Z,1019.24
2019-02-17T02:59:33.701Z,1019.18
2019-02-17T03:00:33.695Z,1019.18
2019-02-17T03:01:33.679Z,1019.15
2019-02-17T03:02:33.675Z,1019.16
2019-02-17T03:03:33.664Z,1019.16
2019-02-17T03:04:33.655Z,1019.15
2019-02-17T03:05:33.646Z,1019.16
2019-02-17T03:06:33.637Z,1019.08
2019-02-17T03:07:33.629Z,1019.14
2019-02-17T03:08:33.621Z,1019.10
2019-02-17T03:09:33.612Z,1019.12
2019-02-17T03:10:33.598Z,1019.08
2019-02-17T03:11:33.588Z,1019.05
2019-02-17T03:12:33.581Z,1019.04
2019-02-17T03:13:33.569Z,1019.07
2019-02-17T03:14:33.568Z,1019.06
2019-02-17T03:15:33.556Z,1018.99
2019-02-17T03:16:33.544Z,1019.06
2019-02-17T03:17:33.537Z,1019.06
2019-02-17T03:18:33.520Z,1019.01
2019-02-17T03:19:33.513Z,1019.01
2019-02-17T03:20:33.506Z,1018.98
2019-02-17T03:21:33.497Z,1018.99
2019-02-17T03:22:33.483Z,1018.98
2019-02-17T03:23:33.478Z,1019.01
2019-02-17T03:24:33.466Z,1019.03
2019-02-17T03:25:33.458Z,1019.01
2019-02-17T03:26:33.455Z,1019.00
2019-02-17T03:27:33.442Z,1019.01
2019-02-17T03:28:33.433Z,1018.94
2019-02-17T03:29:33.424Z,1018.96
2019-02-17T03:30:33.412Z,1018.94
2019-02-17T03:31:33.418Z,1018.92
2019-02-17T03:32:33.390Z,1018.99
2019-02-17T03:33:33.381Z,1018.94
2019-02-17T03:34:33.375Z,1018.92
2019-02-17T03:35:33.365Z,1018.93
2019-02-17T03:36:33.350Z,1018.93
2019-02-17T03:37:33.341Z,1018.91
2019-02-17T03:38:33.339Z,1018.93
2019-02-17T03:39:33.333Z,1018.94
2019-02-17T03:40:33.322Z,1018.87
2019-02-17T03:41:33.314Z,1018.90
2019-02-17T03:42:33.297Z,1018.87
2019-02-17T03:43:33.290Z,1018.87
2019-02-17T03:44:33.278Z,1018.86
2019-02-17T03:45:33.269Z,1018.88
2019-02-17T03:46:33.263Z,1018.89
2019-02-17T03:47:33.253Z,1018.91
2019-02-17T03:48:33.247Z,1018.93
2019-02-17T03:49:33.233Z,1018.95
2019-02-17T03:50:33.219Z,1018.90
2019-02-17T03:51:33.211Z,1018.88
2019-02-17T03:52:33.203Z,1018.91
2019-02-17T03:53:33.196Z,1018.88
2019-02-17T03:54:33.179Z,1018.82
2019-02-17T03:55:33.170Z,1018.86
2019-02-17T03:56:33.169Z,1018.86
2019-02-17T03:57:33.154Z,1018.84
2019-02-17T03:58:33.150Z,1018.80
2019-02-17T03:59:33.138Z,1018.78
2019-02-17T04:00:33.126Z,1018.81
2019-02-17T04:01:33.118Z,1018.72
2019-02-17T04:02:33.102Z,1018.76
2019-02-17T04:03:33.095Z,1018.75
2019-02-17T04:04:33.085Z,1018.73
2019-02-17T04:05:33.075Z,1018.73
2019-02-17T04:06:33.072Z,1018.72
2019-02-17T04:07:33.059Z,1018.70
2019-02-17T04:08:33.045Z,1018.66
2019-02-17T04:09:33.036Z,1018.63
2019-02-17T04:10:33.035Z,1018.58
2019-02-17T04:11:33.022Z,1018.61
2019-02-17T04:12:33.018Z,1018.59
2019-02-17T04:13:32.998Z,1018.56
2019-02-17T04:14:32.983Z,1018.54
2019-02-17T04:15:32.972Z,1018.57
2019-02-17T04:16:32.964Z,1018.60
2019-02-17T04:17:32.953Z,1018.58
2019-02-17T04:18:32.950Z,1018.55
2019-02-17T04:19:32.937Z,1018.53
2019-02-17T04:20:32.931Z,1018.58
2019-02-17T04:21:33.555Z,1018.57
2019-02-17T04:22:32.908Z,1018.50
2019-02-17T04:23:32.898Z,1018.52
2019-02-17T04:24:32.915Z,1018.52
2019-02-17T04:25:32.881Z,1018.58
2019-02-17T04:26:32.870Z,1018.58
2019-02-17T04:27:32.857Z,1018.61
2019-02-17T04:28:32.944Z,1018.49
2019-02-17T04:29:32.838Z,1018.52
2019-02-17T04:30:32.830Z,1018.52
2019-02-17T04:31:32.820Z,1018.52
2019-02-17T04:32:32.810Z,1018.55
2019-02-17T04:33:32.800Z,1018.53
2019-02-17T04:34:32.787Z,1018.55
2019-02-17T04:35:32.776Z,1018.59
2019-02-17T04:36:32.776Z,1018.54
2019-02-17T04:37:32.762Z,1018.57
2019-02-17T04:38:32.758Z,1018.58
2019-02-17T04:39:32.744Z,1018.53
2019-02-17T04:40:32.731Z,1018.53
2019-02-17T04:41:32.722Z,1018.55
2019-02-17T04:42:32.717Z,1018.53
2019-02-17T04:43:32.707Z,1018.51
2019-02-17T04:44:32.754Z,1018.53
2019-02-17T04:45:32.685Z,1018.52
2019-02-17T04:46:32.706Z,1018.54
2019-02-17T04:47:32.660Z,1018.51
2019-02-17T04:48:32.650Z,1018.45
2019-02-17T04:49:32.642Z,1018.49
2019-02-17T04:50:32.635Z,1018.46
2019-02-17T04:51:32.625Z,1018.46
2019-02-17T04:52:32.619Z,1018.47
2019-02-17T04:53:32.609Z,1018.38
2019-02-17T04:54:32.596Z,1018.43
2019-02-17T04:55:32.585Z,1018.42
2019-02-17T04:56:32.580Z,1018.38
2019-02-17T04:57:32.572Z,1018.41
2019-02-17T04:58:32.578Z,1018.43
2019-02-17T04:59:32.547Z,1018.45
2019-02-17T05:00:39.832Z,1018.42
2019-02-17T05:01:32.538Z,1018.42
2019-02-17T05:02:32.528Z,1018.40
2019-02-17T05:03:32.511Z,1018.39
2019-02-17T05:04:32.502Z,1018.39
2019-02-17T05:05:32.493Z,1018.42
2019-02-17T05:06:32.491Z,1018.45
2019-02-17T05:07:32.470Z,1018.46
2019-02-17T05:08:32.456Z,1018.44
2019-02-17T05:09:32.447Z,1018.52
2019-02-17T05:10:32.447Z,1018.43
2019-02-17T05:11:32.442Z,1018.41
2019-02-17T05:12:32.420Z,1018.40
2019-02-17T05:13:32.409Z,1018.44
2019-02-17T05:14:32.405Z,1018.43
2019-02-17T05:15:32.402Z,1018.46
2019-02-17T05:16:32.386Z,1018.44
2019-02-17T05:17:32.442Z,1018.48
2019-02-17T05:18:32.362Z,1018.42
2019-02-17T05:19:32.364Z,1018.42
2019-02-17T05:20:32.343Z,1018.40
2019-02-17T05:21:32.335Z,1018.44
2019-02-17T05:22:32.328Z,1018.44
2019-02-17T05:23:32.320Z,1018.46
2019-02-17T05:24:32.309Z,1018.44
2019-02-17T05:25:32.297Z,1018.42
2019-02-17T05:26:32.284Z,1018.40
2019-02-17T05:27:32.279Z,1018.39
2019-02-17T05:28:32.273Z,1018.38
2019-02-17T05:29:32.260Z,1018.37
2019-02-17T05:30:32.244Z,1018.41
2019-02-17T05:31:32.233Z,1018.37
2019-02-17T05:32:32.228Z,1018.37
2019-02-17T05:33:32.218Z,1018.34
2019-02-17T05:34:32.216Z,1018.35
2019-02-17T05:35:32.202Z,1018.31
2019-02-17T05:36:32.193Z,1018.30
2019-02-17T05:37:32.184Z,1018.32
2019-02-17T05:38:32.170Z,1018.33
2019-02-17T05:39:32.159Z,1018.31
2019-02-17T05:40:32.149Z,1018.34
2019-02-17T05:41:32.139Z,1018.30
2019-02-17T05:42:32.134Z,1018.33
2019-02-17T05:43:32.123Z,1018.35
2019-02-17T05:44:32.108Z,1018.35
2019-02-17T05:45:32.106Z,1018.32
2019-02-17T05:46:32.093Z,1018.31
2019-02-17T05:47:32.083Z,1018.33
2019-02-17T05:48:32.077Z,1018.30
2019-02-17T05:49:32.067Z,1018.25
2019-02-17T05:50:32.054Z,1018.29
2019-02-17T05:51:32.044Z,1018.24
2019-02-17T05:52:32.034Z,1018.29
2019-02-17T05:53:32.026Z,1018.23
2019-02-17T05:54:32.021Z,1018.17
2019-02-17T05:55:32.010Z,1018.14
2019-02-17T05:56:31.998Z,1018.17
2019-02-17T05:57:31.992Z,1018.20
2019-02-17T05:58:31.973Z,1018.16
2019-02-17T05:59:31.965Z,1018.12
2019-02-17T06:00:31.963Z,1018.09
2019-02-17T06:01:31.948Z,1018.14
2019-02-17T06:02:31.935Z,1018.12
2019-02-17T06:03:31.924Z,1018.14
2019-02-17T06:04:31.917Z,1018.12
2019-02-17T06:05:31.908Z,1018.13
2019-02-17T06:06:31.903Z,1018.14
2019-02-17T06:07:32.007Z,1018.16
2019-02-17T06:08:31.880Z,1018.10
2019-02-17T06:09:31.874Z,1018.16
2019-02-17T06:10:31.860Z,1018.15
2019-02-17T06:11:31.848Z,1018.12
2019-02-17T06:12:31.840Z,1018.11
2019-02-17T06:13:31.833Z,1018.13
2019-02-17T06:14:31.826Z,1018.11
2019-02-17T06:15:31.815Z,1018.14
2019-02-17T06:16:31.803Z,1018.05
2019-02-17T06:17:31.792Z,1018.12
2019-02-17T06:18:31.788Z,1018.07
2019-02-17T06:19:31.778Z,1018.06
2019-02-17T06:20:31.770Z,1018.09
2019-02-17T06:21:31.758Z,1018.03
2019-02-17T06:22:31.740Z,1018.08
2019-02-17T06:23:31.732Z,1018.10
2019-02-17T06:24:31.722Z,1018.14
2019-02-17T06:25:31.712Z,1018.12
2019-02-17T06:26:31.707Z,1018.16
2019-02-17T06:27:31.698Z,1018.10
2019-02-17T06:28:31.690Z,1018.14
2019-02-17T06:29:31.680Z,1018.18
2019-02-17T06:30:31.668Z,1018.15
2019-02-17T06:31:31.655Z,1018.13
2019-02-17T06:32:31.652Z,1018.12
2019-02-17T06:33:31.706Z,1018.17
2019-02-17T06:34:31.629Z,1018.18
2019-02-17T06:35:31.620Z,1018.13
2019-02-17T06:36:31.613Z,1018.12
2019-02-17T06:37:31.597Z,1018.14
2019-02-17T06:38:31.592Z,1018.15
2019-02-17T06:39:31.584Z,1018.11
2019-02-17T06:40:31.574Z,1018.14
2019-02-17T06:41:31.566Z,1018.16
2019-02-17T06:42:31.550Z,1018.20
2019-02-17T06:43:31.539Z,1018.18
2019-02-17T06:44:31.534Z,1018.18
2019-02-17T06:45:31.524Z,1018.16
2019-02-17T06:46:31.520Z,1018.22
2019-02-17T06:47:31.509Z,1018.13
2019-02-17T06:48:31.497Z,1018.18
2019-02-17T06:49:31.486Z,1018.16
2019-02-17T06:50:32.907Z,1018.16
2019-02-17T06:51:31.471Z,1018.15
2019-02-17T06:52:31.459Z,1018.14
2019-02-17T06:53:31.448Z,1018.14
2019-02-17T06:54:31.435Z,1018.13
2019-02-17T06:55:31.427Z,1018.11
2019-02-17T06:56:31.422Z,1018.15
2019-02-17T06:57:31.406Z,1018.12
2019-02-17T06:58:31.404Z,1018.13
2019-02-17T06:59:31.393Z,1018.12
2019-02-17T07:00:31.385Z,1018.09
2019-02-17T07:01:31.377Z,1018.10
2019-02-17T07:02:31.362Z,1018.13
2019-02-17T07:03:31.373Z,1018.13
2019-02-17T07:04:31.371Z,1018.09
2019-02-17T07:05:31.362Z,1018.16
2019-02-17T07:06:31.384Z,1018.21
2019-02-17T07:07:31.314Z,1018.19
2019-02-17T07:08:31.327Z,1018.15
2019-02-17T07:09:31.295Z,1018.20
2019-02-17T07:10:31.290Z,1018.20
2019-02-17T07:11:31.293Z,1018.25
2019-02-17T07:12:31.270Z,1018.15
2019-02-17T07:13:31.319Z,1018.26
2019-02-17T07:14:31.258Z,1018.18
2019-02-17T07:15:31.247Z,1018.21
2019-02-17T07:16:31.236Z,1018.24
2019-02-17T07:17:31.229Z,1018.24
2019-02-17T07:18:31.212Z,1018.22
2019-02-17T07:19:31.204Z,1018.18
2019-02-17T07:20:31.202Z,1018.27
2019-02-17T07:21:31.192Z,1018.21
2019-02-17T07:22:31.178Z,1018.21
2019-02-17T07:23:31.167Z,1018.26
2019-02-17T07:24:31.162Z,1018.19
2019-02-17T07:25:31.154Z,1018.17
2019-02-17T07:26:31.149Z,1018.26
2019-02-17T07:27:31.139Z,1018.24
2019-02-17T07:28:31.133Z,1018.31
2019-02-17T07:29:31.123Z,1018.39
2019-02-17T07:30:31.110Z,1018.38
2019-02-17T07:31:34.834Z,1018.39
2019-02-17T07:32:31.094Z,1018.49
2019-02-17T07:33:31.086Z,1018.46
2019-02-17T07:34:31.080Z,1018.48
2019-02-17T07:35:31.070Z,1018.49
2019-02-17T07:36:31.058Z,1018.51
2019-02-17T07:37:33.823Z,1018.54
2019-02-17T07:38:31.047Z,1018.50
2019-02-17T07:39:31.038Z,1018.48
2019-02-17T07:40:31.032Z,1018.53
2019-02-17T07:41:31.025Z,1018.49
2019-02-17T07:42:31.016Z,1018.48
2019-02-17T07:43:31.007Z,1018.46
2019-02-17T07:44:30.999Z,1018.42
2019-02-17T07:45:30.992Z,1018.43
2019-02-17T07:46:30.989Z,1018.46
2019-02-17T07:47:30.988Z,1018.45
2019-02-17T07:48:30.973Z,1018.46
2019-02-17T07:49:30.984Z,1018.51
2019-02-17T07:50:30.955Z,1018.49
2019-02-17T07:51:30.947Z,1018.51
2019-02-17T07:52:30.947Z,1018.46
2019-02-17T07:53:30.943Z,1018.49
2019-02-17T07:54:30.928Z,1018.52
2019-02-17T07:55:30.922Z,1018.55
2019-02-17T07:56:30.919Z,1018.58
2019-02-17T07:57:30.914Z,1018.59
2019-02-17T07:58:30.910Z,1018.60
2019-02-17T07:59:30.905Z,1018.67
2019-02-17T08:00:30.900Z,1018.69
2019-02-17T08:01:30.892Z,1018.69
2019-02-17T08:02:30.881Z,1018.74
2019-02-17T08:03:30.875Z,1018.74
2019-02-17T08:04:30.866Z,1018.76
2019-02-17T08:05:30.862Z,1018.70
2019-02-17T08:06:30.862Z,1018.68
2019-02-17T08:07:30.863Z,1018.71
2019-02-17T08:08:30.847Z,1018.73
2019-02-17T08:09:30.841Z,1018.72
2019-02-17T08:10:30.845Z,1018.76
2019-02-17T08:11:30.836Z,1018.74
2019-02-17T08:12:30.838Z,1018.69
2019-02-17T08:13:30.832Z,1018.66
2019-02-17T08:14:30.825Z,1018.74
2019-02-17T08:15:30.819Z,1018.78
2019-02-17T08:16:30.812Z,1018.76
2019-02-17T08:17:30.807Z,1018.80
2019-02-17T08:18:30.809Z,1018.81
2019-02-17T08:19:30.804Z,1018.84
2019-02-17T08:20:30.803Z,1018.82
2019-02-17T08:21:30.800Z,1018.88
2019-02-17T08:22:30.791Z,1018.87
2019-02-17T08:23:30.792Z,1018.83
2019-02-17T08:24:30.789Z,1018.87
2019-02-17T08:25:30.788Z,1018.78
2019-02-17T08:26:30.781Z,1018.78
2019-02-17T08:27:30.775Z,1018.83
2019-02-17T08:28:30.769Z,1018.83
2019-02-17T08:29:30.775Z,1018.86
2019-02-17T08:30:30.771Z,1018.89
2019-02-17T08:31:30.766Z,1018.79
2019-02-17T08:32:30.762Z,1018.86
2019-02-17T08:33:30.763Z,1018.88
2019-02-17T08:34:30.788Z,1018.90
2019-02-17T08:35:30.752Z,1018.91
2019-02-17T08:36:30.753Z,1018.93
2019-02-17T08:37:30.755Z,1019.04
2019-02-17T08:38:30.755Z,1018.94
2019-02-17T08:39:30.751Z,1018.91
2019-02-17T08:40:30.745Z,1018.97
2019-02-17T08:41:30.745Z,1018.43
2019-02-17T08:42:30.747Z,1018.41
2019-02-17T08:43:30.745Z,1018.40
2019-02-17T08:44:30.745Z,1018.40
2019-02-17T08:45:30.742Z,1018.41
2019-02-17T08:46:30.736Z,1018.37
2019-02-17T08:47:30.733Z,1018.31
2019-02-17T08:48:30.733Z,1018.36
2019-02-17T08:49:30.732Z,1018.34
2019-02-17T08:50:30.737Z,1018.37
2019-02-17T08:51:30.736Z,1018.38
2019-02-17T08:52:30.741Z,1018.39
2019-02-17T08:53:30.737Z,1018.33
2019-02-17T08:54:30.732Z,1018.40
2019-02-17T08:55:30.732Z,1018.35
2019-02-17T08:56:30.736Z,1018.34
2019-02-17T08:57:30.737Z,1018.28
2019-02-17T08:58:30.733Z,1018.29
2019-02-17T08:59:30.732Z,1018.27
2019-02-17T09:00:30.729Z,1018.25
2019-02-17T09:01:30.730Z,1018.28
2019-02-17T09:02:30.736Z,1018.24
2019-02-17T09:03:30.734Z,1018.29
2019-02-17T09:04:30.736Z,1018.33
2019-02-17T09:05:30.736Z,1018.29
2019-02-17T09:06:30.734Z,1018.28
2019-02-17T09:07:30.732Z,1018.19
2019-02-17T09:08:30.735Z,1018.16
2019-02-17T09:09:30.736Z,1018.16
2019-02-17T09:10:30.741Z,1018.14
2019-02-17T09:11:30.743Z,1018.16
2019-02-17T09:12:30.738Z,1018.14
2019-02-17T09:13:30.739Z,1018.14
2019-02-17T09:14:30.743Z,1018.10
2019-02-17T09:15:30.743Z,1018.19
2019-02-17T09:16:30.740Z,1018.14
2019-02-17T09:17:30.743Z,1018.10
2019-02-17T09:18:30.737Z,1018.15
2019-02-17T09:19:30.741Z,1018.18
2019-02-17T09:20:30.740Z,1018.21
2019-02-17T09:21:30.741Z,1018.13
2019-02-17T09:22:30.746Z,1018.23
2019-02-17T09:23:30.746Z,1018.19
2019-02-17T09:24:30.745Z,1018.20
2019-02-17T09:25:30.744Z,1018.25
2019-02-17T09:26:30.742Z,1018.23
2019-02-17T09:27:30.742Z,1018.18
2019-02-17T09:28:30.745Z,1018.22
2019-02-17T09:29:30.754Z,1018.20
2019-02-17T09:30:30.749Z,1018.18
2019-02-17T09:31:30.742Z,1018.15
2019-02-17T09:32:30.746Z,1018.15
2019-02-17T09:33:30.746Z,1018.05
2019-02-17T09:34:30.751Z,1018.11
2019-02-17T09:35:30.751Z,1018.08
2019-02-17T09:36:30.752Z,1018.09
2019-02-17T09:37:30.752Z,1018.09
2019-02-17T09:38:30.750Z,1018.12
2019-02-17T09:39:30.749Z,1018.12
2019-02-17T09:40:30.747Z,1018.05
2019-02-17T09:41:30.752Z,1018.07
2019-02-17T09:42:30.756Z,1018.09
2019-02-17T09:43:30.758Z,1018.12
2019-02-17T09:44:30.758Z,1018.09
2019-02-17T09:45:30.755Z,1018.15
2019-02-17T09:46:30.764Z,1018.10
2019-02-17T09:47:30.765Z,1018.03
2019-02-17T09:48:30.767Z,1018.07
2019-02-17T09:49:30.770Z,1018.09
2019-02-17T09:50:30.767Z,1018.08
2019-02-17T09:51:30.769Z,1018.10
2019-02-17T09:52:30.771Z,1018.19
2019-02-17T09:53:30.772Z,1018.22
2019-02-17T09:54:30.780Z,1018.27
2019-02-17T09:55:30.778Z,1018.22
2019-02-17T09:56:30.779Z,1018.29
2019-02-17T09:57:30.783Z,1018.30
2019-02-17T09:58:30.779Z,1018.22
2019-02-17T09:59:30.781Z,1018.21
2019-02-17T10:00:30.794Z,1018.08
2019-02-17T10:01:30.791Z,1018.12
2019-02-17T10:02:30.788Z,1018.16
2019-02-17T10:03:30.791Z,1018.06
2019-02-17T10:04:30.795Z,1017.98
2019-02-17T10:05:30.799Z,1018.07
2019-02-17T10:06:30.804Z,1018.00
2019-02-17T10:07:30.808Z,1018.04
2019-02-17T10:08:30.810Z,1018.03
2019-02-17T10:09:30.814Z,1018.05
2019-02-17T10:10:30.811Z,1018.08
2019-02-17T10:11:30.814Z,1018.08
2019-02-17T10:12:30.813Z,1018.05
2019-02-17T10:13:30.854Z,1018.08
2019-02-17T10:14:30.824Z,1018.06
2019-02-17T10:15:30.824Z,1018.10
2019-02-17T10:16:30.822Z,1018.06
2019-02-17T10:17:30.826Z,1018.11
2019-02-17T10:18:30.832Z,1018.06
2019-02-17T10:19:30.833Z,1018.15
2019-02-17T10:20:30.838Z,1018.14
2019-02-17T10:21:30.844Z,1018.13
2019-02-17T10:22:30.840Z,1018.10
2019-02-17T10:23:30.845Z,1018.08
2019-02-17T10:24:30.842Z,1018.06
2019-02-17T10:25:30.846Z,1018.06
2019-02-17T10:26:30.854Z,1017.99
2019-02-17T10:27:30.858Z,1018.03
2019-02-17T10:28:30.862Z,1018.05
2019-02-17T10:29:30.866Z,1018.00
2019-02-17T10:30:30.869Z,1018.00
2019-02-17T10:31:30.867Z,1018.01
2019-02-17T10:32:37.281Z,1018.01
2019-02-17T10:33:30.879Z,1017.98
2019-02-17T10:34:30.876Z,1017.99
2019-02-17T10:35:30.880Z,1017.98
2019-02-17T10:36:30.881Z,1018.01
2019-02-17T10:37:30.883Z,1018.02
2019-02-17T10:38:30.892Z,1018.02
2019-02-17T10:39:30.895Z,1018.03
2019-02-17T10:40:30.898Z,1018.03
2019-02-17T10:41:30.904Z,1018.05
2019-02-17T10:42:30.900Z,1018.00
2019-02-17T10:43:30.907Z,1018.01
2019-02-17T10:44:30.909Z,1017.99
2019-02-17T10:45:30.916Z,1018.08
2019-02-17T10:46:30.921Z,1017.99
2019-02-17T10:47:30.923Z,1018.04
2019-02-17T10:48:30.924Z,1017.90
2019-02-17T10:49:30.928Z,1017.90
2019-02-17T10:50:30.935Z,1017.86
2019-02-17T10:51:30.938Z,1017.90
2019-02-17T10:52:30.938Z,1017.88
2019-02-17T10:53:30.944Z,1017.98
2019-02-17T10:54:30.942Z,1017.87
2019-02-17T10:55:30.946Z,1017.83
2019-02-17T10:56:30.957Z,1017.78
2019-02-17T10:57:30.952Z,1017.81
2019-02-17T10:58:30.963Z,1017.80
2019-02-17T10:59:30.965Z,1017.76
2019-02-17T11:00:30.971Z,1017.75
2019-02-17T11:01:30.976Z,1017.72
2019-02-17T11:02:30.975Z,1017.67
2019-02-17T11:03:30.977Z,1017.65
2019-02-17T11:04:30.984Z,1017.71
2019-02-17T11:05:30.988Z,1017.68
2019-02-17T11:06:30.996Z,1017.59
2019-02-17T11:07:30.991Z,1017.47
2019-02-17T11:08:30.991Z,1017.48
2019-02-17T11:09:30.995Z,1017.52
2019-02-17T11:10:31.003Z,1017.45
2019-02-17T11:11:31.005Z,1017.52
2019-02-17T11:12:31.008Z,1017.49
2019-02-17T11:13:31.013Z,1017.44
2019-02-17T11:14:31.013Z,1017.47
2019-02-17T11:15:31.016Z,1017.42
2019-02-17T11:16:31.021Z,1017.44
2019-02-17T11:17:31.023Z,1017.34
2019-02-17T11:18:31.031Z,1017.47
2019-02-17T11:19:31.033Z,1017.41
2019-02-17T11:20:31.032Z,1017.36
2019-02-17T11:21:31.036Z,1017.35
2019-02-17T11:22:31.044Z,1017.44
2019-02-17T11:23:31.046Z,1017.37
2019-02-17T11:24:31.049Z,1017.47
2019-02-17T11:25:31.052Z,1017.44
2019-02-17T11:26:31.050Z,1017.45
2019-02-17T11:27:31.053Z,1017.40
2019-02-17T11:28:31.058Z,1017.39
2019-02-17T11:29:31.064Z,1017.33
2019-02-17T11:30:31.071Z,1017.33
2019-02-17T11:31:31.075Z,1017.31
2019-02-17T11:32:32.321Z,1017.32
2019-02-17T11:33:31.085Z,1017.30
2019-02-17T11:34:31.084Z,1017.33
2019-02-17T11:35:31.091Z,1017.31
2019-02-17T11:36:31.095Z,1017.28
2019-02-17T11:37:31.102Z,1017.30
2019-02-17T11:38:31.099Z,1017.21
2019-02-17T11:39:31.102Z,1017.26
2019-02-17T11:40:31.102Z,1017.23
2019-02-17T11:41:31.107Z,1017.13
2019-02-17T11:42:31.114Z,1017.18
2019-02-17T11:43:31.118Z,1017.14
2019-02-17T11:44:32.016Z,1017.07
2019-02-17T11:45:31.121Z,1017.04
2019-02-17T11:46:31.122Z,1016.97
2019-02-17T11:47:31.123Z,1017.11
2019-02-17T11:48:31.126Z,1016.92
2019-02-17T11:49:31.131Z,1017.00
2019-02-17T11:50:31.135Z,1016.96
2019-02-17T11:51:31.138Z,1016.90
2019-02-17T11:52:31.132Z,1016.88
2019-02-17T11:53:31.132Z,1016.85
2019-02-17T11:54:31.140Z,1016.90
2019-02-17T11:55:31.139Z,1016.88
2019-02-17T11:56:31.138Z,1016.86
2019-02-17T11:57:31.139Z,1016.82
2019-02-17T11:58:31.132Z,1016.74
2019-02-17T11:59:31.132Z,1016.74
2019-02-17T12:00:31.132Z,1016.77
2019-02-17T12:01:31.132Z,1016.72
2019-02-17T12:02:31.137Z,1016.77
2019-02-17T12:03:31.137Z,1016.68
2019-02-17T12:04:31.136Z,1016.74
2019-02-17T12:05:31.136Z,1016.71